< < Back
Terminal Aerodrome Forecast


Current Version              Previous Versions:   1  2  3  4  5  6  7  8  9  

Terminal Aerodrome Forecast

628
FTUS44 KBMX 282320
TAFMGM
TAF
KMGM 282320Z 2900/2924 29004KT P6SM SCT100 BKN250
     FM290100 07002KT P6SM VCSH BKN250
     FM290300 09002KT P6SM SCT250=

Latest METAR

515
SAUS80 KWBC 290500 RRA
MTRMGM
METAR KMGM 290453Z AUTO 03003KT 10SM CLR 26/19 A3008 RMK AO2 SLP182
T02560189


USA.gov is the U.S. government's official web portal to all federal, state and local government web resources and services.